Terminal Aerodrome Forecast
Issued by NWS

Home | Current Version | Previous Version | Text Only | Print | Product List | Glossary On
Versions: 1 2 3 4 5 6 7 8 9 10 11 12 13 14 15 16 17 18 19 20 21 22
872
FTUS46 KSEW 122339
TAFSEA
TAF
KSEA 122339Z 1300/1406 20010KT P6SM SCT025 SCT040
      TEMPO 1300/1302 6SM -SHRA BKN025
     FM130500 20009KT P6SM SCT020 BKN035
     FM130900 19009KT 5SM -SHRA BR SCT008 OVC015
     FM131200 19011KT P6SM SCT012 BKN020
     FM132000 18011KT 6SM -RA BR SCT012 BKN018 OVC030
     FM140300 17013G20KT P6SM -RA OVC020=

USA.gov is the U.S. government's official web portal to all federal, state and local government web resources and services.